Volgoneft 115 — UEWP — position and weather

sailwx.info

Track history (hours):
 
Tides and Currents Weather Stations Pressure Air Temp Water Temp Dewpoint Dewpoint Depression Visibility Wind Speed Wind Dir Waves Ship Positions

Volgoneft 115

Last reported at 2018-Jun-23 11:45 UTC. Time now 2018-Jun-23 17:44 UTC.
Position N 45°08' E 036°31'.

Length 133 m; draft 3.6 m.

Type: Ship. MMSI: 273443560.

Date/timePositionNaut miles runAvg speedWind from/ knotsBaromVisibWave heightAir tempDewpointWater temp
2018-Jun-23 11:45N 45°08' E 036°31'0 0.1
2018-Jun-23 11:18N 45°08' E 036°31'1 1.0
2018-Jun-23 10:14N 45°09' E 036°30'2 6.5
2018-Jun-23 09:59N 45°10' E 036°29'6 6.6
2018-Jun-23 09:02N 45°16' E 036°28'0 3.3
2018-Jun-23 08:56N 45°16' E 036°28'1 2.0
2018-Jun-23 08:30N 45°17' E 036°28'3 6.0
2018-Jun-23 07:59N 45°19' E 036°32'3 6.7
2018-Jun-23 07:30N 45°20' E 036°36'3 6.0
2018-Jun-23 07:00N 45°22' E 036°40'2 3.7
2018-Jun-23 06:30N 45°23' E 036°41'7 0.4
2018-Jun-22 12:15N 45°29' E 036°45'  
Track history (hours):
 
Tides and Currents Weather Stations Pressure Air Temp Water Temp Dewpoint Dewpoint Depression Visibility Wind Speed Wind Dir Waves Ship Positions

Volgoneft 115

Last reported at 2018-Jun-23 11:45 UTC. Time now 2018-Jun-23 17:44 UTC.
Position N 45°08' E 036°31'.

Length 133 m; draft 3.6 m.

Type: Ship. MMSI: 273443560.

Date/timePositionNaut miles runAvg speedWind from/ knotsBaromVisibWave heightAir tempDewpointWater temp
2018-Jun-23 11:45N 45°08' E 036°31'0 0.1
2018-Jun-23 11:18N 45°08' E 036°31'1 1.0
2018-Jun-23 10:14N 45°09' E 036°30'2 6.5
2018-Jun-23 09:59N 45°10' E 036°29'6 6.6
2018-Jun-23 09:02N 45°16' E 036°28'0 3.3
2018-Jun-23 08:56N 45°16' E 036°28'1 2.0
2018-Jun-23 08:30N 45°17' E 036°28'3 6.0
2018-Jun-23 07:59N 45°19' E 036°32'3 6.7
2018-Jun-23 07:30N 45°20' E 036°36'3 6.0
2018-Jun-23 07:00N 45°22' E 036°40'2 3.7
2018-Jun-23 06:30N 45°23' E 036°41'7 0.4
2018-Jun-22 12:15N 45°29' E 036°45'  

Dump ship's entire track history